sensor_id;sensor_type;location;lat;lon;timestamp;pressure;altitude;pressure_sealevel;temperature;humidity
49342;BME280;35210;41.606;-87.602;2023-02-17T00:01:19;98869.50;;;2.54;100.00
49342;BME280;35210;41.606;-87.602;2023-02-17T00:03:48;98880.75;;;2.39;99.83
49342;BME280;35210;41.606;-87.602;2023-02-17T00:06:20;98898.81;;;2.42;100.00
49342;BME280;35210;41.606;-87.602;2023-02-17T00:08:50;98908.41;;;2.42;100.00
49342;BME280;35210;41.606;-87.602;2023-02-17T00:11:19;98918.59;;;2.46;100.00
49342;BME280;35210;41.606;-87.602;2023-02-17T00:13:47;98916.81;;;2.47;99.58
49342;BME280;35210;41.606;-87.602;2023-02-17T00:16:18;98920.13;;;2.50;100.00
49342;BME280;35210;41.606;-87.602;2023-02-17T00:18:46;98914.91;;;2.50;99.78
49342;BME280;35210;41.606;-87.602;2023-02-17T00:21:21;98918.78;;;2.59;99.73
49342;BME280;35210;41.606;-87.602;2023-02-17T00:23:51;98920.81;;;2.54;99.44
49342;BME280;35210;41.606;-87.602;2023-02-17T00:26:20;98920.13;;;2.50;99.07
49342;BME280;35210;41.606;-87.602;2023-02-17T00:28:48;98936.44;;;2.54;98.86
49342;BME280;35210;41.606;-87.602;2023-02-17T00:31:20;98937.91;;;2.42;99.09
49342;BME280;35210;41.606;-87.602;2023-02-17T00:33:53;98946.66;;;2.41;99.29
49342;BME280;35210;41.606;-87.602;2023-02-17T00:36:24;98960.53;;;2.42;98.98
49342;BME280;35210;41.606;-87.602;2023-02-17T00:38:55;98953.22;;;2.48;100.00
49342;BME280;35210;41.606;-87.602;2023-02-17T00:41:24;98959.97;;;2.52;100.00
49342;BME280;35210;41.606;-87.602;2023-02-17T00:43:53;98971.91;;;2.56;98.65
49342;BME280;35210;41.606;-87.602;2023-02-17T00:46:22;98959.81;;;2.55;98.55
49342;BME280;35210;41.606;-87.602;2023-02-17T00:48:50;98970.41;;;2.52;99.44
49342;BME280;35210;41.606;-87.602;2023-02-17T00:51:18;98983.44;;;2.52;98.97
49342;BME280;35210;41.606;-87.602;2023-02-17T00:53:49;98989.56;;;2.51;99.01
49342;BME280;35210;41.606;-87.602;2023-02-17T00:56:17;99007.03;;;2.49;97.53
49342;BME280;35210;41.606;-87.602;2023-02-17T00:58:45;98988.34;;;2.41;98.42
49342;BME280;35210;41.606;-87.602;2023-02-17T01:01:13;98993.72;;;2.38;98.47
49342;BME280;35210;41.606;-87.602;2023-02-17T01:03:43;99007.50;;;2.40;98.59
49342;BME280;35210;41.606;-87.602;2023-02-17T01:06:21;99022.13;;;2.43;98.39
49342;BME280;35210;41.606;-87.602;2023-02-17T01:08:52;99033.41;;;2.43;98.47
49342;BME280;35210;41.606;-87.602;2023-02-17T01:11:23;99035.69;;;2.32;97.61
49342;BME280;35210;41.606;-87.602;2023-02-17T01:13:52;99045.97;;;2.35;98.10
49342;BME280;35210;41.606;-87.602;2023-02-17T01:16:21;99051.94;;;2.37;98.39
49342;BME280;35210;41.606;-87.602;2023-02-17T01:18:50;99064.69;;;2.43;98.03
49342;BME280;35210;41.606;-87.602;2023-02-17T01:21:20;99078.31;;;2.48;98.77
49342;BME280;35210;41.606;-87.602;2023-02-17T01:23:49;99084.44;;;2.47;97.07
49342;BME280;35210;41.606;-87.602;2023-02-17T01:26:22;99084.59;;;2.44;97.50
49342;BME280;35210;41.606;-87.602;2023-02-17T01:28:51;99089.19;;;2.39;97.38
49342;BME280;35210;41.606;-87.602;2023-02-17T01:31:21;99093.34;;;2.43;97.31
49342;BME280;35210;41.606;-87.602;2023-02-17T01:33:49;99099.69;;;2.38;97.13
49342;BME280;35210;41.606;-87.602;2023-02-17T01:36:18;99106.97;;;2.31;97.44
49342;BME280;35210;41.606;-87.602;2023-02-17T01:38:46;99109.66;;;2.29;97.31
49342;BME280;35210;41.606;-87.602;2023-02-17T01:41:16;99122.59;;;2.31;97.31
49342;BME280;35210;41.606;-87.602;2023-02-17T01:44:09;99122.59;;;2.31;97.28
49342;BME280;35210;41.606;-87.602;2023-02-17T01:46:39;99122.97;;;2.23;97.43
49342;BME280;35210;41.606;-87.602;2023-02-17T01:49:17;99126.28;;;2.27;97.89
49342;BME280;35210;41.606;-87.602;2023-02-17T01:51:51;99125.41;;;2.26;98.25
49342;BME280;35210;41.606;-87.602;2023-02-17T01:54:24;99124.44;;;2.29;97.77
49342;BME280;35210;41.606;-87.602;2023-02-17T01:56:54;99132.41;;;2.26;97.49
49342;BME280;35210;41.606;-87.602;2023-02-17T01:59:26;99149.13;;;2.22;97.06
49342;BME280;35210;41.606;-87.602;2023-02-17T02:01:58;99138.00;;;2.18;97.12
49342;BME280;35210;41.606;-87.602;2023-02-17T02:04:30;99152.09;;;2.14;97.79
49342;BME280;35210;41.606;-87.602;2023-02-17T02:06:59;99159.06;;;2.14;96.91
49342;BME280;35210;41.606;-87.602;2023-02-17T02:09:31;99164.41;;;2.11;97.10
49342;BME280;35210;41.606;-87.602;2023-02-17T02:12:02;99171.53;;;2.07;96.51
49342;BME280;35210;41.606;-87.602;2023-02-17T02:14:32;99181.25;;;2.04;95.62
49342;BME280;35210;41.606;-87.602;2023-02-17T02:17:07;99176.03;;;2.04;96.30
49342;BME280;35210;41.606;-87.602;2023-02-17T02:20:00;99184.81;;;2.01;96.72
49342;BME280;35210;41.606;-87.602;2023-02-17T02:22:57;99184.75;;;2.03;97.24
49342;BME280;35210;41.606;-87.602;2023-02-17T02:25:50;99193.41;;;2.03;97.15
49342;BME280;35210;41.606;-87.602;2023-02-17T02:28:36;99201.16;;;2.05;96.18
49342;BME280;35210;41.606;-87.602;2023-02-17T02:31:28;99214.88;;;2.08;96.02
49342;BME280;35210;41.606;-87.602;2023-02-17T02:34:06;99221.22;;;2.03;96.30
49342;BME280;35210;41.606;-87.602;2023-02-17T02:36:38;99220.38;;;2.02;96.18
49342;BME280;35210;41.606;-87.602;2023-02-17T02:39:13;99227.34;;;2.02;95.86
49342;BME280;35210;41.606;-87.602;2023-02-17T02:41:45;99228.88;;;2.06;95.81
49342;BME280;35210;41.606;-87.602;2023-02-17T02:44:19;99235.84;;;2.05;95.72
49342;BME280;35210;41.606;-87.602;2023-02-17T02:46:56;99245.50;;;2.03;95.58
49342;BME280;35210;41.606;-87.602;2023-02-17T02:49:27;99251.56;;;2.04;95.29
49342;BME280;35210;41.606;-87.602;2023-02-17T02:52:02;99248.44;;;1.95;96.08
49342;BME280;35210;41.606;-87.602;2023-02-17T02:54:43;99248.50;;;1.94;95.00
49342;BME280;35210;41.606;-87.602;2023-02-17T02:57:21;99263.16;;;1.96;96.28
49342;BME280;35210;41.606;-87.602;2023-02-17T03:00:10;99276.38;;;1.92;95.92
49342;BME280;35210;41.606;-87.602;2023-02-17T03:02:44;99285.69;;;1.97;95.36
49342;BME280;35210;41.606;-87.602;2023-02-17T03:05:27;99273.56;;;1.96;96.17
49342;BME280;35210;41.606;-87.602;2023-02-17T03:08:03;99280.47;;;1.97;94.69
49342;BME280;35210;41.606;-87.602;2023-02-17T03:10:32;99292.72;;;1.95;94.40
49342;BME280;35210;41.606;-87.602;2023-02-17T03:13:01;99294.53;;;1.93;95.50
49342;BME280;35210;41.606;-87.602;2023-02-17T03:15:32;99298.78;;;1.96;95.39
49342;BME280;35210;41.606;-87.602;2023-02-17T03:18:01;99301.44;;;1.94;95.16
49342;BME280;35210;41.606;-87.602;2023-02-17T03:20:35;99301.31;;;1.97;94.76
49342;BME280;35210;41.606;-87.602;2023-02-17T03:23:05;99284.91;;;1.95;94.27
49342;BME280;35210;41.606;-87.602;2023-02-17T03:25:33;99303.91;;;1.97;94.37
49342;BME280;35210;41.606;-87.602;2023-02-17T03:28:02;99314.47;;;1.94;93.74
49342;BME280;35210;41.606;-87.602;2023-02-17T03:30:31;99322.66;;;1.85;93.33
49342;BME280;35210;41.606;-87.602;2023-02-17T03:32:59;99331.72;;;1.77;91.32
49342;BME280;35210;41.606;-87.602;2023-02-17T03:35:27;99339.06;;;1.67;91.36
49342;BME280;35210;41.606;-87.602;2023-02-17T03:37:57;99359.75;;;1.50;91.14
49342;BME280;35210;41.606;-87.602;2023-02-17T03:40:25;99356.66;;;1.42;91.16
49342;BME280;35210;41.606;-87.602;2023-02-17T03:42:55;99370.16;;;1.29;90.60
49342;BME280;35210;41.606;-87.602;2023-02-17T03:45:23;99371.78;;;1.10;88.86
49342;BME280;35210;41.606;-87.602;2023-02-17T03:47:51;99388.88;;;0.94;88.94
49342;BME280;35210;41.606;-87.602;2023-02-17T03:50:20;99390.38;;;0.78;89.48
49342;BME280;35210;41.606;-87.602;2023-02-17T03:52:48;99402.47;;;0.79;91.02
49342;BME280;35210;41.606;-87.602;2023-02-17T03:55:17;99405.78;;;0.60;90.91
49342;BME280;35210;41.606;-87.602;2023-02-17T03:57:45;99419.06;;;0.53;90.63
49342;BME280;35210;41.606;-87.602;2023-02-17T04:00:14;99415.88;;;0.45;90.60
49342;BME280;35210;41.606;-87.602;2023-02-17T04:02:42;99419.38;;;0.44;91.24
49342;BME280;35210;41.606;-87.602;2023-02-17T04:05:10;99422.16;;;0.39;90.55
49342;BME280;35210;41.606;-87.602;2023-02-17T04:07:41;99428.94;;;0.43;90.54
49342;BME280;35210;41.606;-87.602;2023-02-17T04:10:10;99443.50;;;0.47;90.91
49342;BME280;35210;41.606;-87.602;2023-02-17T04:12:40;99442.06;;;0.39;90.71
49342;BME280;35210;41.606;-87.602;2023-02-17T04:15:09;99442.13;;;0.37;91.03
49342;BME280;35210;41.606;-87.602;2023-02-17T04:17:37;99444.84;;;0.34;91.58
49342;BME280;35210;41.606;-87.602;2023-02-17T04:20:07;99445.06;;;0.28;90.01
49342;BME280;35210;41.606;-87.602;2023-02-17T04:22:35;99447.53;;;0.31;90.60
49342;BME280;35210;41.606;-87.602;2023-02-17T04:25:03;99445.84;;;0.30;89.21
49342;BME280;35210;41.606;-87.602;2023-02-17T04:27:32;99454.69;;;0.24;89.21
49342;BME280;35210;41.606;-87.602;2023-02-17T04:30:02;99452.38;;;0.17;90.52
49342;BME280;35210;41.606;-87.602;2023-02-17T04:32:30;99473.25;;;0.14;89.74
49342;BME280;35210;41.606;-87.602;2023-02-17T04:34:59;99472.53;;;0.09;89.72
49342;BME280;35210;41.606;-87.602;2023-02-17T04:37:27;99477.16;;;0.00;89.44
49342;BME280;35210;41.606;-87.602;2023-02-17T04:39:55;99482.56;;;-0.06;90.26
49342;BME280;35210;41.606;-87.602;2023-02-17T04:42:24;99480.78;;;-0.04;89.92
49342;BME280;35210;41.606;-87.602;2023-02-17T04:44:53;99495.31;;;0.00;89.28
49342;BME280;35210;41.606;-87.602;2023-02-17T04:47:23;99498.25;;;-0.09;90.39
49342;BME280;35210;41.606;-87.602;2023-02-17T04:49:51;99509.72;;;-0.16;89.96
49342;BME280;35210;41.606;-87.602;2023-02-17T04:52:19;99520.00;;;-0.13;90.29
49342;BME280;35210;41.606;-87.602;2023-02-17T04:54:47;99516.38;;;-0.07;91.04
49342;BME280;35210;41.606;-87.602;2023-02-17T04:57:16;99514.66;;;-0.08;90.24
49342;BME280;35210;41.606;-87.602;2023-02-17T04:59:45;99520.75;;;-0.09;90.30
49342;BME280;35210;41.606;-87.602;2023-02-17T05:02:13;99537.97;;;-0.07;89.45
49342;BME280;35210;41.606;-87.602;2023-02-17T05:04:44;99533.09;;;-0.16;90.01
49342;BME280;35210;41.606;-87.602;2023-02-17T05:07:14;99532.53;;;-0.25;89.52
49342;BME280;35210;41.606;-87.602;2023-02-17T05:09:42;99524.75;;;-0.25;90.32
49342;BME280;35210;41.606;-87.602;2023-02-17T05:12:10;99544.66;;;-0.26;89.80
49342;BME280;35210;41.606;-87.602;2023-02-17T05:14:39;99540.69;;;-0.38;89.38
49342;BME280;35210;41.606;-87.602;2023-02-17T05:17:07;99544.22;;;-0.40;90.14
49342;BME280;35210;41.606;-87.602;2023-02-17T05:19:36;99545.88;;;-0.38;90.34
49342;BME280;35210;41.606;-87.602;2023-02-17T05:22:07;99550.22;;;-0.38;91.14
49342;BME280;35210;41.606;-87.602;2023-02-17T05:24:36;99556.22;;;-0.36;91.04
49342;BME280;35210;41.606;-87.602;2023-02-17T05:27:04;99563.00;;;-0.32;90.14
49342;BME280;35210;41.606;-87.602;2023-02-17T05:29:32;99573.25;;;-0.27;88.77
49342;BME280;35210;41.606;-87.602;2023-02-17T05:32:01;99583.56;;;-0.26;89.56
49342;BME280;35210;41.606;-87.602;2023-02-17T05:34:31;99589.56;;;-0.24;88.49
49342;BME280;35210;41.606;-87.602;2023-02-17T05:36:59;99598.97;;;-0.20;88.14
49342;BME280;35210;41.606;-87.602;2023-02-17T05:39:29;99601.97;;;-0.34;87.66
49342;BME280;35210;41.606;-87.602;2023-02-17T05:41:58;99599.13;;;-0.26;88.04
49342;BME280;35210;41.606;-87.602;2023-02-17T05:44:26;99607.91;;;-0.30;86.40
49342;BME280;35210;41.606;-87.602;2023-02-17T05:46:57;99618.19;;;-0.27;85.84
49342;BME280;35210;41.606;-87.602;2023-02-17T05:49:25;99616.59;;;-0.31;85.85
49342;BME280;35210;41.606;-87.602;2023-02-17T05:51:54;99629.94;;;-0.43;85.81
49342;BME280;35210;41.606;-87.602;2023-02-17T05:54:22;99629.75;;;-0.37;86.12
49342;BME280;35210;41.606;-87.602;2023-02-17T05:56:51;99615.06;;;-0.38;85.96
49342;BME280;35210;41.606;-87.602;2023-02-17T05:59:19;99614.22;;;-0.39;85.75
49342;BME280;35210;41.606;-87.602;2023-02-17T06:01:47;99618.75;;;-0.45;85.51
49342;BME280;35210;41.606;-87.602;2023-02-17T06:04:15;99633.59;;;-0.50;85.18
49342;BME280;35210;41.606;-87.602;2023-02-17T06:06:43;99653.53;;;-0.52;84.65
49342;BME280;35210;41.606;-87.602;2023-02-17T06:09:11;99643.38;;;-0.60;86.07
49342;BME280;35210;41.606;-87.602;2023-02-17T06:11:40;99645.88;;;-0.57;86.51
49342;BME280;35210;41.606;-87.602;2023-02-17T06:14:09;99648.31;;;-0.51;85.97
49342;BME280;35210;41.606;-87.602;2023-02-17T06:16:38;99643.84;;;-0.46;85.23
49342;BME280;35210;41.606;-87.602;2023-02-17T06:19:06;99636.09;;;-0.47;85.25
49342;BME280;35210;41.606;-87.602;2023-02-17T06:21:35;99641.56;;;-0.56;85.88
49342;BME280;35210;41.606;-87.602;2023-02-17T06:24:03;99645.13;;;-0.60;85.95
49342;BME280;35210;41.606;-87.602;2023-02-17T06:26:31;99662.28;;;-0.56;85.85
49342;BME280;35210;41.606;-87.602;2023-02-17T06:28:59;99657.88;;;-0.53;86.45
49342;BME280;35210;41.606;-87.602;2023-02-17T06:31:29;99656.22;;;-0.55;86.47
49342;BME280;35210;41.606;-87.602;2023-02-17T06:33:57;99656.22;;;-0.55;86.12
49342;BME280;35210;41.606;-87.602;2023-02-17T06:36:25;99661.50;;;-0.58;86.51
49342;BME280;35210;41.606;-87.602;2023-02-17T06:38:53;99676.06;;;-0.54;86.23
49342;BME280;35210;41.606;-87.602;2023-02-17T06:41:21;99671.13;;;-0.63;85.43
49342;BME280;35210;41.606;-87.602;2023-02-17T06:43:49;99671.13;;;-0.63;86.12
49342;BME280;35210;41.606;-87.602;2023-02-17T06:46:17;99666.59;;;-0.55;86.19
49342;BME280;35210;41.606;-87.602;2023-02-17T06:48:47;99669.09;;;-0.52;86.04
49342;BME280;35210;41.606;-87.602;2023-02-17T06:51:16;99667.41;;;-0.53;85.85
49342;BME280;35210;41.606;-87.602;2023-02-17T06:53:45;99661.31;;;-0.52;86.16
49342;BME280;35210;41.606;-87.602;2023-02-17T06:56:13;99649.91;;;-0.47;85.82
49342;BME280;35210;41.606;-87.602;2023-02-17T06:58:41;99650.69;;;-0.43;85.80
49342;BME280;35210;41.606;-87.602;2023-02-17T07:01:15;99657.13;;;-0.56;85.41
49342;BME280;35210;41.606;-87.602;2023-02-17T07:03:44;99661.16;;;-0.46;85.42
49342;BME280;35210;41.606;-87.602;2023-02-17T07:06:14;99649.75;;;-0.41;85.58
49342;BME280;35210;41.606;-87.602;2023-02-17T07:08:42;99645.41;;;-0.40;84.86
49342;BME280;35210;41.606;-87.602;2023-02-17T07:11:11;99661.19;;;-0.48;85.15
49342;BME280;35210;41.606;-87.602;2023-02-17T07:13:40;99654.16;;;-0.44;85.94
49342;BME280;35210;41.606;-87.602;2023-02-17T07:16:08;99649.53;;;-0.33;86.31
49342;BME280;35210;41.606;-87.602;2023-02-17T07:18:37;99634.53;;;-0.23;84.32
49342;BME280;35210;41.606;-87.602;2023-02-17T07:21:05;99653.63;;;-0.26;84.64
49342;BME280;35210;41.606;-87.602;2023-02-17T07:23:35;99645.84;;;-0.26;84.91
49342;BME280;35210;41.606;-87.602;2023-02-17T07:26:06;99650.16;;;-0.25;85.18
49342;BME280;35210;41.606;-87.602;2023-02-17T07:28:35;99655.28;;;-0.23;85.27
49342;BME280;35210;41.606;-87.602;2023-02-17T07:31:05;99663.16;;;-0.26;85.71
49342;BME280;35210;41.606;-87.602;2023-02-17T07:33:35;99666.34;;;-0.17;84.84
49342;BME280;35210;41.606;-87.602;2023-02-17T07:36:05;99662.94;;;-0.19;84.95
49342;BME280;35210;41.606;-87.602;2023-02-17T07:38:36;99670.59;;;-0.14;85.50
49342;BME280;35210;41.606;-87.602;2023-02-17T07:41:06;99664.63;;;-0.18;85.28
49342;BME280;35210;41.606;-87.602;2023-02-17T07:43:34;99683.66;;;-0.17;85.55
49342;BME280;35210;41.606;-87.602;2023-02-17T07:46:03;99683.53;;;-0.13;85.68
49342;BME280;35210;41.606;-87.602;2023-02-17T07:48:32;99680.13;;;-0.15;86.12
49342;BME280;35210;41.606;-87.602;2023-02-17T07:51:04;99670.72;;;-0.19;85.63
49342;BME280;35210;41.606;-87.602;2023-02-17T07:53:33;99672.38;;;-0.16;86.02
49342;BME280;35210;41.606;-87.602;2023-02-17T07:56:03;99676.63;;;-0.14;86.38
49342;BME280;35210;41.606;-87.602;2023-02-17T07:58:33;99686.22;;;-0.16;86.01
49342;BME280;35210;41.606;-87.602;2023-02-17T08:01:05;99694.25;;;-0.25;85.70
49342;BME280;35210;41.606;-87.602;2023-02-17T08:03:33;99697.47;;;-0.17;85.87
49342;BME280;35210;41.606;-87.602;2023-02-17T08:06:01;99715.53;;;-0.12;85.86
49342;BME280;35210;41.606;-87.602;2023-02-17T08:08:30;99699.84;;;-0.09;86.27
49342;BME280;35210;41.606;-87.602;2023-02-17T08:11:16;99722.22;;;-0.05;86.25
49342;BME280;35210;41.606;-87.602;2023-02-17T08:14:01;99720.41;;;-0.02;85.07
49342;BME280;35210;41.606;-87.602;2023-02-17T08:16:29;99725.91;;;-0.12;85.30
49342;BME280;35210;41.606;-87.602;2023-02-17T08:18:57;99715.47;;;-0.11;86.26
49342;BME280;35210;41.606;-87.602;2023-02-17T08:21:26;99720.41;;;-0.02;85.80
49342;BME280;35210;41.606;-87.602;2023-02-17T08:23:54;99731.69;;;-0.03;85.69
49342;BME280;35210;41.606;-87.602;2023-02-17T08:26:24;99732.38;;;0.03;85.94
49342;BME280;35210;41.606;-87.602;2023-02-17T08:28:52;99740.00;;;0.07;85.40
49342;BME280;35210;41.606;-87.602;2023-02-17T08:31:22;99732.00;;;0.15;84.26
49342;BME280;35210;41.606;-87.602;2023-02-17T08:33:51;99742.44;;;0.13;83.74
49342;BME280;35210;41.606;-87.602;2023-02-17T08:36:19;99752.22;;;0.04;84.22
49342;BME280;35210;41.606;-87.602;2023-02-17T08:38:48;99757.44;;;0.04;84.50
49342;BME280;35210;41.606;-87.602;2023-02-17T08:41:19;99760.03;;;0.04;84.21
49342;BME280;35210;41.606;-87.602;2023-02-17T08:43:50;99761.03;;;-0.01;84.68
49342;BME280;35210;41.606;-87.602;2023-02-17T08:46:19;99756.63;;;0.02;83.87
49342;BME280;35210;41.606;-87.602;2023-02-17T08:48:47;99759.34;;;-0.02;83.64
49342;BME280;35210;41.606;-87.602;2023-02-17T08:51:17;99748.94;;;-0.02;83.99
49342;BME280;35210;41.606;-87.602;2023-02-17T08:53:49;99747.38;;;-0.07;83.86
49342;BME280;35210;41.606;-87.602;2023-02-17T08:56:17;99763.84;;;-0.08;84.45
49342;BME280;35210;41.606;-87.602;2023-02-17T08:58:46;99769.13;;;-0.11;84.40
49342;BME280;35210;41.606;-87.602;2023-02-17T09:01:17;99777.13;;;-0.19;84.31
49342;BME280;35210;41.606;-87.602;2023-02-17T09:03:46;99778.75;;;-0.15;84.89
49342;BME280;35210;41.606;-87.602;2023-02-17T09:06:15;99778.72;;;-0.13;84.71
49342;BME280;35210;41.606;-87.602;2023-02-17T09:08:44;99789.13;;;-0.15;84.73
49342;BME280;35210;41.606;-87.602;2023-02-17T09:11:12;99796.84;;;-0.12;85.39
49342;BME280;35210;41.606;-87.602;2023-02-17T09:13:42;99798.41;;;-0.06;84.43
49342;BME280;35210;41.606;-87.602;2023-02-17T09:16:11;99812.50;;;-0.15;84.28
49342;BME280;35210;41.606;-87.602;2023-02-17T09:18:40;99817.56;;;-0.10;83.48
49342;BME280;35210;41.606;-87.602;2023-02-17T09:21:11;99820.03;;;-0.06;83.43
49342;BME280;35210;41.606;-87.602;2023-02-17T09:23:39;99824.56;;;-0.14;83.09
49342;BME280;35210;41.606;-87.602;2023-02-17T09:26:09;99830.66;;;-0.15;83.08
49342;BME280;35210;41.606;-87.602;2023-02-17T09:28:40;99826.16;;;-0.08;82.64
49342;BME280;35210;41.606;-87.602;2023-02-17T09:31:09;99831.59;;;-0.17;83.30
49342;BME280;35210;41.606;-87.602;2023-02-17T09:33:37;99843.00;;;-0.23;82.64
49342;BME280;35210;41.606;-87.602;2023-02-17T09:36:09;99846.72;;;-0.33;83.46
49342;BME280;35210;41.606;-87.602;2023-02-17T09:38:39;99856.94;;;-0.27;83.29
49342;BME280;35210;41.606;-87.602;2023-02-17T09:41:15;99875.19;;;-0.30;82.85
49342;BME280;35210;41.606;-87.602;2023-02-17T09:43:43;99873.56;;;-0.34;82.21
49342;BME280;35210;41.606;-87.602;2023-02-17T09:46:16;99882.66;;;-0.52;81.94
49342;BME280;35210;41.606;-87.602;2023-02-17T09:48:47;99885.44;;;-0.59;82.59
49342;BME280;35210;41.606;-87.602;2023-02-17T09:51:21;99895.00;;;-0.61;81.39
49342;BME280;35210;41.606;-87.602;2023-02-17T09:54:02;99904.59;;;-0.65;81.46
49342;BME280;35210;41.606;-87.602;2023-02-17T09:56:34;99905.47;;;-0.66;82.22
49342;BME280;35210;41.606;-87.602;2023-02-17T09:59:09;99902.78;;;-0.61;80.44
49342;BME280;35210;41.606;-87.602;2023-02-17T10:01:39;99911.66;;;-0.72;80.37
49342;BME280;35210;41.606;-87.602;2023-02-17T10:04:11;99912.50;;;-0.71;81.31
49342;BME280;35210;41.606;-87.602;2023-02-17T10:06:46;99920.19;;;-0.67;79.89
49342;BME280;35210;41.606;-87.602;2023-02-17T10:09:20;99937.00;;;-0.83;80.23
49342;BME280;35210;41.606;-87.602;2023-02-17T10:11:55;99941.41;;;-0.86;79.76
49342;BME280;35210;41.606;-87.602;2023-02-17T10:14:29;99953.66;;;-0.93;79.27
49342;BME280;35210;41.606;-87.602;2023-02-17T10:17:04;99965.88;;;-0.98;80.33
49342;BME280;35210;41.606;-87.602;2023-02-17T10:19:39;99972.69;;;-0.94;80.08
49342;BME280;35210;41.606;-87.602;2023-02-17T10:22:17;99972.75;;;-0.97;80.46
49342;BME280;35210;41.606;-87.602;2023-02-17T10:24:46;99978.72;;;-0.93;79.80
49342;BME280;35210;41.606;-87.602;2023-02-17T10:27:27;99983.94;;;-0.95;78.79
49342;BME280;35210;41.606;-87.602;2023-02-17T10:30:07;99987.69;;;-1.08;79.00
49342;BME280;35210;41.606;-87.602;2023-02-17T10:32:50;99998.03;;;-1.07;78.40
49342;BME280;35210;41.606;-87.602;2023-02-17T10:38:18;99997.13;;;-1.06;77.77
49342;BME280;35210;41.606;-87.602;2023-02-17T10:40:54;100014.66;;;-1.18;78.06
49342;BME280;35210;41.606;-87.602;2023-02-17T10:43:26;100018.16;;;-1.19;78.67
49342;BME280;35210;41.606;-87.602;2023-02-17T10:45:56;100016.44;;;-1.20;78.42
49342;BME280;35210;41.606;-87.602;2023-02-17T10:48:33;100026.09;;;-1.28;79.58
49342;BME280;35210;41.606;-87.602;2023-02-17T10:51:01;100033.75;;;-1.22;78.99
49342;BME280;35210;41.606;-87.602;2023-02-17T10:53:33;100037.22;;;-1.23;77.84
49342;BME280;35210;41.606;-87.602;2023-02-17T10:56:08;100038.25;;;-1.32;76.99
49342;BME280;35210;41.606;-87.602;2023-02-17T10:58:47;100044.31;;;-1.33;77.99
49342;BME280;35210;41.606;-87.602;2023-02-17T11:01:17;100047.19;;;-1.48;76.71
49342;BME280;35210;41.606;-87.602;2023-02-17T11:03:45;100054.88;;;-1.44;76.80
49342;BME280;35210;41.606;-87.602;2023-02-17T11:06:18;100061.78;;;-1.43;76.21
49342;BME280;35210;41.606;-87.602;2023-02-17T11:08:53;100064.44;;;-1.47;76.31
49342;BME280;35210;41.606;-87.602;2023-02-17T11:11:23;100070.63;;;-1.53;77.07
49342;BME280;35210;41.606;-87.602;2023-02-17T11:14:01;100087.88;;;-1.52;76.84
49342;BME280;35210;41.606;-87.602;2023-02-17T11:16:35;100088.81;;;-1.57;77.50
49342;BME280;35210;41.606;-87.602;2023-02-17T11:19:06;100084.56;;;-1.60;77.11
49342;BME280;35210;41.606;-87.602;2023-02-17T11:21:46;100096.72;;;-1.65;76.59
49342;BME280;35210;41.606;-87.602;2023-02-17T11:24:16;100100.25;;;-1.69;76.95
49342;BME280;35210;41.606;-87.602;2023-02-17T11:26:54;100101.91;;;-1.65;76.69
49342;BME280;35210;41.606;-87.602;2023-02-17T11:29:23;100109.75;;;-1.70;76.92
49342;BME280;35210;41.606;-87.602;2023-02-17T11:31:56;100108.00;;;-1.69;75.99
49342;BME280;35210;41.606;-87.602;2023-02-17T11:34:26;100116.69;;;-1.72;75.01
49342;BME280;35210;41.606;-87.602;2023-02-17T11:37:00;100122.91;;;-1.83;75.36
49342;BME280;35210;41.606;-87.602;2023-02-17T11:39:37;100125.50;;;-1.83;75.59
49342;BME280;35210;41.606;-87.602;2023-02-17T11:42:14;100132.34;;;-1.79;74.86
49342;BME280;35210;41.606;-87.602;2023-02-17T11:44:42;100137.53;;;-1.79;75.53
49342;BME280;35210;41.606;-87.602;2023-02-17T11:47:15;100135.84;;;-1.83;74.69
49342;BME280;35210;41.606;-87.602;2023-02-17T11:50:04;100140.19;;;-1.85;73.29
49342;BME280;35210;41.606;-87.602;2023-02-17T11:52:46;100143.81;;;-1.95;74.63
49342;BME280;35210;41.606;-87.602;2023-02-17T11:55:28;100144.69;;;-1.98;75.30
49342;BME280;35210;41.606;-87.602;2023-02-17T11:58:15;100162.94;;;-2.06;73.90
49342;BME280;35210;41.606;-87.602;2023-02-17T12:00:52;100162.19;;;-2.15;74.53
49342;BME280;35210;41.606;-87.602;2023-02-17T12:03:46;100168.38;;;-2.24;74.93
49342;BME280;35210;41.606;-87.602;2023-02-17T12:06:25;100175.16;;;-2.17;75.58
49342;BME280;35210;41.606;-87.602;2023-02-17T12:09:08;100179.47;;;-2.16;76.12
49342;BME280;35210;41.606;-87.602;2023-02-17T12:11:50;100180.38;;;-2.20;76.44
49342;BME280;35210;41.606;-87.602;2023-02-17T12:14:37;100188.94;;;-2.15;76.93
49342;BME280;35210;41.606;-87.602;2023-02-17T12:17:14;100195.84;;;-2.17;75.77
49342;BME280;35210;41.606;-87.602;2023-02-17T12:19:49;100202.75;;;-2.17;75.32
49342;BME280;35210;41.606;-87.602;2023-02-17T12:22:28;100207.97;;;-2.19;74.61
49342;BME280;35210;41.606;-87.602;2023-02-17T12:25:23;100220.06;;;-2.21;75.07
49342;BME280;35210;41.606;-87.602;2023-02-17T12:28:08;100214.97;;;-2.25;74.65
49342;BME280;35210;41.606;-87.602;2023-02-17T12:30:49;100233.88;;;-2.22;74.74
49342;BME280;35210;41.606;-87.602;2023-02-17T12:33:35;100238.28;;;-2.28;74.16
49342;BME280;35210;41.606;-87.602;2023-02-17T12:36:08;100243.47;;;-2.30;74.17
49342;BME280;35210;41.606;-87.602;2023-02-17T12:38:42;100251.22;;;-2.28;74.59
49342;BME280;35210;41.606;-87.602;2023-02-17T12:41:15;100264.09;;;-2.24;74.72
49342;BME280;35210;41.606;-87.602;2023-02-17T12:43:49;100272.72;;;-2.23;74.53
49342;BME280;35210;41.606;-87.602;2023-02-17T12:46:22;100266.59;;;-2.19;73.81
49342;BME280;35210;41.606;-87.602;2023-02-17T12:48:55;100278.75;;;-2.23;74.86
49342;BME280;35210;41.606;-87.602;2023-02-17T12:51:27;100277.78;;;-2.16;73.78
49342;BME280;35210;41.606;-87.602;2023-02-17T12:54:04;100285.72;;;-2.28;74.14
49342;BME280;35210;41.606;-87.602;2023-02-17T12:56:50;100291.81;;;-2.35;74.72
49342;BME280;35210;41.606;-87.602;2023-02-17T12:59:26;100294.41;;;-2.35;74.53
49342;BME280;35210;41.606;-87.602;2023-02-17T13:02:00;100292.69;;;-2.36;74.93
49342;BME280;35210;41.606;-87.602;2023-02-17T13:04:31;100309.03;;;-2.31;74.75
49342;BME280;35210;41.606;-87.602;2023-02-17T13:07:08;100310.59;;;-2.19;72.87
49342;BME280;35210;41.606;-87.602;2023-02-17T13:09:44;100320.00;;;-2.14;71.02